Time;durP1;ratioP1;P1;durP2;ratioP2;P2;SDS_P1;SDS_P2;PMS_P1;PMS_P2;Temp;Humidity;BMP_temperature;BMP_pressure;BME280_temperature;BME280_humidity;BME280_pressure;Samples;Min_cycle;Max_cycle;Signal;HPM_P1;HPM_P2
2023/06/23 00:02:36;;;;;;;10.40;9.30;;;16.10;99.90;;;;;;2613488;54;20519;-71
2023/06/23 00:08:24;;;;;;;14.60;10.50;;;16.00;99.90;;;;;;2613658;54;20166;-71
2023/06/23 00:14:12;;;;;;;16.13;11.20;;;16.00;99.90;;;;;;2614044;54;20375;-72
2023/06/23 00:20:00;;;;;;;14.30;11.10;;;15.90;99.90;;;;;;2614108;54;20966;-71
2023/06/23 00:25:48;;;;;;;15.00;10.53;;;15.90;99.90;;;;;;2614118;54;20146;-71
2023/06/23 00:31:36;;;;;;;13.40;11.80;;;15.90;99.90;;;;;;2613382;54;20394;-71
2023/06/23 00:37:24;;;;;;;19.10;12.90;;;15.80;99.90;;;;;;2614098;54;21000;-72
2023/06/23 00:43:12;;;;;;;17.17;12.20;;;15.90;99.90;;;;;;2614935;54;20450;-71
2023/06/23 00:52:59;;;;;;;19.60;15.40;;;15.90;99.90;;;;;;2615400;39;20798;-71
2023/06/23 00:58:48;;;;;;;20.53;17.27;;;15.90;99.90;;;;;;2612310;54;20407;-71
2023/06/23 01:04:35;;;;;;;23.70;16.37;;;15.90;99.90;;;;;;2614480;54;20423;-74
2023/06/23 01:10:29;;;;;;;18.60;15.00;;;15.90;99.90;;;;;;2613664;54;20154;-74
2023/06/23 01:16:33;;;;;;;21.43;16.80;;;16.00;99.90;;;;;;2613325;54;20391;-74
2023/06/23 01:35:35;;;;;;;23.63;17.10;;;16.00;99.90;;;;;;2613927;54;20402;-73
2023/06/23 01:41:28;;;;;;;30.37;19.73;;;16.10;99.90;;;;;;2612853;54;20424;-74
2023/06/23 01:47:19;;;;;;;24.40;18.97;;;16.10;99.90;;;;;;2613949;54;20403;-74
2023/06/23 01:53:08;;;;;;;28.10;19.27;;;16.00;99.90;;;;;;2614627;54;20423;-74
2023/06/23 01:58:58;;;;;;;26.67;19.63;;;16.00;99.90;;;;;;2613818;54;20423;-74
2023/06/23 02:02:01;;;;;;;24.13;19.87;;;16.00;99.90;;;;;;2612784;54;20431;-74
2023/06/23 02:04:29;;;;;;;26.40;16.63;;;16.00;99.90;;;;;;2614508;54;20395;-74
2023/06/23 02:10:17;;;;;;;32.83;19.13;;;16.00;99.90;;;;;;2613649;54;20367;-73
2023/06/23 02:16:06;;;;;;;21.30;16.47;;;15.90;99.90;;;;;;2614148;39;20775;-75
2023/06/23 02:21:56;;;;;;;21.43;16.47;;;16.00;99.90;;;;;;2614036;46;20398;-73
2023/06/23 02:27:45;;;;;;;23.43;16.80;;;15.90;99.90;;;;;;2614766;54;20436;-73
2023/06/23 02:33:32;;;;;;;18.97;14.00;;;15.80;99.90;;;;;;2613007;54;20507;-73
2023/06/23 02:39:21;;;;;;;20.53;15.20;;;15.80;99.90;;;;;;2614582;54;20138;-74
2023/06/23 02:45:15;;;;;;;21.53;14.27;;;15.80;99.90;;;;;;2614135;54;20503;-74
2023/06/23 02:48:32;;;;;;;20.63;14.00;;;15.80;99.90;;;;;;2613593;54;20415;-74
2023/06/23 02:51:01;;;;;;;18.47;13.60;;;15.90;99.90;;;;;;2611361;54;20430;-74
2023/06/23 02:56:51;;;;;;;24.97;15.63;;;15.90;99.90;;;;;;2611445;54;20414;-67
2023/06/23 03:02:42;;;;;;;20.83;16.10;;;15.90;99.90;;;;;;2614529;54;20383;-74
2023/06/23 03:08:30;;;;;;;23.10;16.33;;;15.90;99.90;;;;;;2614120;54;20406;-75
2023/06/23 03:14:17;;;;;;;21.97;17.00;;;15.90;99.90;;;;;;2613265;54;20147;-75
2023/06/23 03:20:24;;;;;;;23.07;16.17;;;15.90;99.90;;;;;;2614240;54;20178;-75
2023/06/23 03:26:13;;;;;;;24.63;17.10;;;15.90;99.90;;;;;;2614123;54;20435;-75
2023/06/23 03:32:04;;;;;;;22.90;17.57;;;15.90;99.90;;;;;;2613328;39;20768;-75
2023/06/23 03:37:59;;;;;;;22.20;15.93;;;16.00;99.90;;;;;;2613623;54;20355;-76
2023/06/23 03:43:53;;;;;;;28.37;18.43;;;16.00;99.90;;;;;;2614056;54;20502;-74
2023/06/23 03:53:05;;;;;;;31.80;18.70;;;16.10;99.90;;;;;;2612906;54;20455;-75
2023/06/23 03:58:54;;;;;;;30.63;18.30;;;16.10;99.90;;;;;;2613747;54;20437;-75
2023/06/23 04:04:44;;;;;;;25.37;18.50;;;16.20;99.90;;;;;;2611581;54;20472;-75
2023/06/23 04:10:33;;;;;;;25.67;18.80;;;16.20;99.90;;;;;;2614848;39;20794;-75
2023/06/23 04:16:21;;;;;;;30.83;20.30;;;16.20;99.90;;;;;;2614945;54;20375;-76
2023/06/23 04:22:10;;;;;;;28.37;21.30;;;16.20;99.90;;;;;;2614942;54;20468;-75
2023/06/23 04:28:03;;;;;;;29.43;21.03;;;16.10;99.90;;;;;;2614199;54;20403;-76
2023/06/23 04:33:50;;;;;;;34.43;19.13;;;16.20;99.90;;;;;;2614560;39;20665;-75
2023/06/23 04:45:59;;;;;;;30.27;22.17;;;16.20;99.90;;;;;;2614044;54;20379;-75
2023/06/23 04:48:34;;;;;;;37.90;23.90;;;16.20;99.90;;;;;;2614817;54;20424;-75
2023/06/23 04:51:02;;;;;;;29.80;22.60;;;16.20;99.90;;;;;;2613331;54;20423;-75
2023/06/23 04:56:59;;;;;;;30.93;23.70;;;16.20;99.90;;;;;;2611486;54;20407;-76
2023/06/23 05:02:48;;;;;;;38.53;24.60;;;16.20;99.90;;;;;;2613242;54;20399;-74
2023/06/23 05:08:37;;;;;;;34.80;22.87;;;16.20;99.90;;;;;;2614864;54;20993;-75
2023/06/23 05:14:28;;;;;;;39.53;22.47;;;16.30;99.90;;;;;;2614269;54;20499;-75
2023/06/23 05:20:20;;;;;;;35.00;23.30;;;16.40;99.90;;;;;;2614689;54;20515;-76
2023/06/23 05:26:12;;;;;;;30.93;22.20;;;16.50;99.90;;;;;;2611946;54;20953;-75
2023/06/23 05:32:01;;;;;;;33.33;25.00;;;16.40;99.90;;;;;;2614608;54;20391;-76
2023/06/23 05:37:50;;;;;;;29.47;20.70;;;16.60;99.90;;;;;;2613900;54;20383;-75
2023/06/23 05:43:38;;;;;;;30.27;23.33;;;16.80;99.90;;;;;;2613806;54;20553;-77
2023/06/23 05:53:11;;;;;;;29.90;21.40;;;17.20;99.90;;;;;;2612935;54;20391;-75
2023/06/23 05:59:03;;;;;;;29.77;22.30;;;17.20;99.90;;;;;;2614506;54;20367;-76
2023/06/23 06:04:55;;;;;;;30.80;21.87;;;17.20;99.90;;;;;;2612550;39;20860;-76
2023/06/23 06:10:43;;;;;;;27.80;21.93;;;17.20;99.90;;;;;;2609846;54;21348;-75
2023/06/23 06:16:32;;;;;;;26.57;20.33;;;17.20;99.90;;;;;;2612304;54;20925;-76
2023/06/23 06:22:21;;;;;;;22.87;20.33;;;17.40;99.90;;;;;;2613775;54;20420;-74
2023/06/23 06:28:12;;;;;;;20.27;18.00;;;17.80;99.90;;;;;;2614362;54;20423;-76
2023/06/23 06:34:01;;;;;;;20.77;17.63;;;17.80;99.90;;;;;;2611773;54;20423;-74
2023/06/23 06:39:51;;;;;;;18.13;15.40;;;18.00;99.90;;;;;;2611236;39;21350;-75
2023/06/23 06:45:39;;;;;;;19.03;17.03;;;17.70;99.90;;;;;;2611438;54;20447;-74
2023/06/23 06:48:34;;;;;;;19.90;18.00;;;17.90;99.90;;;;;;2611188;54;20423;-75
2023/06/23 06:51:01;;;;;;;19.50;17.23;;;18.00;99.90;;;;;;2610089;54;20163;-76
2023/06/23 06:56:49;;;;;;;20.10;18.03;;;18.20;99.90;;;;;;2611279;39;20774;-75
2023/06/23 07:02:41;;;;;;;19.37;15.53;;;18.40;99.90;;;;;;2611391;54;21699;-75
2023/06/23 07:08:28;;;;;;;18.53;16.60;;;18.30;99.90;;;;;;2611200;39;20878;-76
2023/06/23 07:14:16;;;;;;;17.53;15.70;;;18.80;99.90;;;;;;2611810;54;20143;-75
2023/06/23 07:20:04;;;;;;;15.20;13.90;;;19.70;99.90;;;;;;2611636;31;20715;-76
2023/06/23 07:25:52;;;;;;;17.03;12.53;;;20.60;99.90;;;;;;2609735;46;20377;-74
2023/06/23 07:31:40;;;;;;;14.53;11.83;;;20.00;99.90;;;;;;2613596;54;20142;-74
2023/06/23 07:37:28;;;;;;;11.77;10.67;;;20.20;99.90;;;;;;2610847;54;20158;-74
2023/06/23 07:43:15;;;;;;;12.93;11.40;;;19.90;99.90;;;;;;2610102;39;20369;-75
2023/06/23 07:53:03;;;;;;;12.37;11.17;;;20.50;99.90;;;;;;2612883;54;20360;-75
2023/06/23 07:58:50;;;;;;;10.43;9.43;;;21.30;99.90;;;;;;2611153;54;20384;-74
2023/06/23 08:04:37;;;;;;;11.93;10.80;;;22.30;99.90;;;;;;2612770;54;20146;-74
2023/06/23 08:10:25;;;;;;;10.53;9.40;;;23.00;99.90;;;;;;2610564;54;20150;-77
2023/06/23 08:16:13;;;;;;;11.47;10.37;;;22.30;99.90;;;;;;2612306;54;20130;-78
2023/06/23 08:18:57;;;;;;;11.53;10.50;;;23.00;99.90;;;;;;2610584;54;20408;-77
2023/06/23 08:21:23;;;;;;;11.53;10.50;;;23.10;99.90;;;;;;2610756;54;20171;-77
2023/06/23 08:27:11;;;;;;;11.07;10.17;;;23.10;99.90;;;;;;2608843;54;20150;-77
2023/06/23 08:32:59;;;;;;;11.50;10.50;;;23.00;99.90;;;;;;2611940;54;20134;-77
2023/06/23 08:38:47;;;;;;;10.60;9.60;;;23.00;99.90;;;;;;2613762;39;20658;-77
2023/06/23 08:44:37;;;;;;;10.43;9.77;;;23.20;99.90;;;;;;2609399;39;21043;-77
2023/06/23 08:53:47;;;;;;;10.10;9.40;;;24.00;99.90;;;;;;2613567;54;20519;-78
2023/06/23 08:59:35;;;;;;;9.63;9.03;;;22.60;99.90;;;;;;2612745;54;20423;-78
2023/06/23 09:05:23;;;;;;;12.60;11.70;;;24.60;99.90;;;;;;2614489;54;20130;-77
2023/06/23 09:11:11;;;;;;;12.53;11.83;;;24.70;99.90;;;;;;2611451;54;20167;-74
2023/06/23 09:17:01;;;;;;;14.00;13.03;;;25.20;99.90;;;;;;2609721;54;20242;-74
2023/06/23 09:22:50;;;;;;;11.50;10.93;;;25.00;99.90;;;;;;2611242;54;20426;-74
2023/06/23 09:28:38;;;;;;;11.47;10.77;;;25.30;99.90;;;;;;2614470;31;20857;-75
2023/06/23 09:34:29;;;;;;;11.67;10.77;;;24.80;99.90;;;;;;2610609;54;20431;-73
2023/06/23 09:56:46;;;;;;;14.10;13.20;;;24.60;99.90;;;;;;2612630;54;20487;-74
2023/06/23 10:02:38;;;;;;;13.00;12.30;;;24.80;99.90;;;;;;2614126;54;20147;-73
2023/06/23 10:08:26;;;;;;;11.83;11.13;;;25.60;99.90;;;;;;2613215;54;20391;-74
2023/06/23 10:14:15;;;;;;;14.70;13.33;;;24.60;99.90;;;;;;2612012;54;20126;-74
2023/06/23 10:20:05;;;;;;;13.77;13.10;;;25.70;99.90;;;;;;2612133;54;20938;-74
2023/06/23 10:25:55;;;;;;;13.63;12.60;;;26.00;99.90;;;;;;2609699;54;20399;-74
2023/06/23 10:31:43;;;;;;;15.57;14.73;;;24.80;99.90;;;;;;2613324;54;20443;-73
2023/06/23 10:37:32;;;;;;;15.10;14.10;;;26.20;99.90;;;;;;2610777;54;20367;-74
2023/06/23 10:43:21;;;;;;;14.20;13.50;;;26.00;99.90;;;;;;2611980;54;20375;-73
2023/06/23 10:49:09;;;;;;;15.63;14.80;;;24.80;99.90;;;;;;2611007;54;20425;-75
2023/06/23 10:58:19;;;;;;;12.37;11.77;;;26.50;99.90;;;;;;2606386;54;20520;-75
2023/06/23 11:10:56;;;;;;;14.20;13.50;;;26.00;99.90;;;;;;2605761;54;20890;-76
2023/06/23 11:16:49;;;;;;;14.37;13.67;;;26.70;99.90;;;;;;2610994;54;20411;-75
2023/06/23 11:29:22;;;;;;;13.40;12.80;;;26.10;98.50;;;;;;2610672;54;20394;-75
2023/06/23 11:35:10;;;;;;;14.37;13.47;;;27.70;96.80;;;;;;2614178;54;20398;-75
2023/06/23 11:40:59;;;;;;;13.63;12.83;;;27.20;90.00;;;;;;2614913;54;20392;-76
2023/06/23 11:46:51;;;;;;;14.60;14.00;;;27.60;77.60;;;;;;2614866;54;20422;-75
2023/06/23 11:52:38;;;;;;;17.00;16.10;;;27.70;77.10;;;;;;2614439;54;20387;-75
2023/06/23 12:01:52;;;;;;;13.93;13.30;;;26.90;72.80;;;;;;2612935;54;20399;-76
2023/06/23 12:07:39;;;;;;;13.53;12.93;;;26.50;72.50;;;;;;2614486;54;20375;-75
2023/06/23 12:13:28;;;;;;;15.57;14.70;;;26.90;67.10;;;;;;2614081;39;20529;-75
2023/06/23 12:19:16;;;;;;;12.97;12.37;;;26.40;62.30;;;;;;2613775;54;20422;-74
2023/06/23 12:25:04;;;;;;;14.07;13.37;;;27.90;58.40;;;;;;2611288;54;20387;-77
2023/06/23 12:30:52;;;;;;;14.10;13.50;;;26.20;49.80;;;;;;2612664;54;20441;-77
2023/06/23 12:36:42;;;;;;;13.83;13.23;;;27.50;48.10;;;;;;2614432;54;20395;-76
2023/06/23 12:42:31;;;;;;;13.80;13.20;;;28.20;45.70;;;;;;2612581;54;20414;-75
2023/06/23 12:48:23;;;;;;;13.17;12.57;;;26.70;42.10;;;;;;2614993;54;20356;-75
2023/06/23 12:54:11;;;;;;;13.37;12.77;;;27.80;41.20;;;;;;2614626;54;20391;-75
2023/06/23 12:57:14;;;;;;;13.20;12.60;;;28.40;41.10;;;;;;2613962;54;20412;-75
2023/06/23 12:59:40;;;;;;;13.40;12.80;;;28.10;40.70;;;;;;2615048;54;20977;-75
2023/06/23 13:05:30;;;;;;;13.13;12.60;;;28.30;39.70;;;;;;2614575;54;20392;-76
2023/06/23 13:11:18;;;;;;;14.93;14.23;;;27.60;44.50;;;;;;2613786;54;20383;-75
2023/06/23 13:17:06;;;;;;;14.20;13.50;;;27.20;46.10;;;;;;2614512;54;20387;-75
2023/06/23 13:22:53;;;;;;;15.60;14.80;;;26.50;47.90;;;;;;2616027;54;20135;-75
2023/06/23 13:28:41;;;;;;;14.73;14.10;;;27.20;50.50;;;;;;2614451;54;20235;-75
2023/06/23 13:34:29;;;;;;;15.30;14.60;;;28.00;52.70;;;;;;2615382;54;20218;-75
2023/06/23 13:40:17;;;;;;;15.50;14.50;;;26.20;54.90;;;;;;2614255;54;20134;-77
2023/06/23 13:46:06;;;;;;;14.37;13.67;;;27.30;56.70;;;;;;2611039;54;20159;-76
2023/06/23 13:51:54;;;;;;;13.90;13.20;;;27.10;45.80;;;;;;2611240;54;20404;-76
2023/06/23 14:01:50;;;;;;;15.13;14.43;;;27.80;44.10;;;;;;2614464;54;20392;-74
2023/06/23 14:07:38;;;;;;;15.07;13.73;;;27.30;41.60;;;;;;2614947;54;20375;-77
2023/06/23 14:13:26;;;;;;;15.23;14.50;;;26.20;40.90;;;;;;2614380;54;20200;-76
2023/06/23 14:19:13;;;;;;;14.73;14.03;;;28.20;42.00;;;;;;2611382;54;20120;-77
2023/06/23 14:25:01;;;;;;;14.97;14.20;;;28.10;40.10;;;;;;2614863;54;20230;-75
2023/06/23 14:30:48;;;;;;;15.00;14.40;;;28.80;33.30;;;;;;2612997;54;20158;-77
2023/06/23 14:36:36;;;;;;;15.90;15.10;;;27.60;34.00;;;;;;2612906;54;20166;-77
2023/06/23 14:42:24;;;;;;;15.53;14.73;;;28.60;29.50;;;;;;2614247;54;20657;-77
2023/06/23 14:48:12;;;;;;;15.20;14.50;;;27.90;32.40;;;;;;2613796;54;20122;-76
2023/06/23 14:54:00;;;;;;;14.97;14.27;;;27.60;32.80;;;;;;2614185;54;20127;-76
2023/06/23 14:57:21;;;;;;;14.90;14.20;;;27.40;29.80;;;;;;2611584;54;20415;-76
2023/06/23 14:59:47;;;;;;;15.83;15.00;;;27.90;27.10;;;;;;2614441;54;20519;-75
2023/06/23 15:03:05;;;;;;;15.70;14.70;;;27.80;25.10;;;;;;2612331;39;20819;-76
2023/06/23 15:05:33;;;;;;;15.63;14.87;;;28.30;24.50;;;;;;2610824;54;20186;-75
2023/06/23 15:11:22;;;;;;;15.57;14.87;;;27.80;25.50;;;;;;2613340;54;20407;-76
2023/06/23 15:17:10;;;;;;;15.90;14.87;;;27.60;27.50;;;;;;2613911;54;20446;-75
2023/06/23 15:22:57;;;;;;;15.17;14.47;;;28.30;26.70;;;;;;2614227;54;20188;-76
2023/06/23 15:28:46;;;;;;;15.10;14.20;;;28.40;26.50;;;;;;2613294;54;20585;-75
2023/06/23 15:34:34;;;;;;;15.30;14.60;;;28.10;27.60;;;;;;2614228;39;20797;-77
2023/06/23 15:40:21;;;;;;;15.87;14.97;;;28.10;21.90;;;;;;2611285;54;20131;-76
2023/06/23 15:46:09;;;;;;;15.13;14.17;;;27.90;24.70;;;;;;2615007;39;21258;-75
2023/06/23 15:51:57;;;;;;;15.50;14.70;;;29.00;22.50;;;;;;2613114;54;20161;-75
2023/06/23 16:01:54;;;;;;;15.07;14.37;;;26.90;22.50;;;;;;2612050;54;20423;-75
2023/06/23 16:07:41;;;;;;;16.13;15.33;;;26.00;25.70;;;;;;2610613;54;20408;-75
2023/06/23 16:13:30;;;;;;;16.40;15.60;;;26.70;26.10;;;;;;2609417;54;20151;-75
2023/06/23 16:19:18;;;;;;;15.40;14.70;;;27.40;25.30;;;;;;2612768;54;20470;-74
2023/06/23 16:25:06;;;;;;;15.73;14.97;;;28.20;20.10;;;;;;2612169;39;20542;-75
2023/06/23 16:30:54;;;;;;;16.03;15.23;;;28.00;18.70;;;;;;2612285;54;20423;-75
2023/06/23 16:36:41;;;;;;;15.70;14.90;;;28.30;19.70;;;;;;2613482;54;20266;-76
2023/06/23 16:42:29;;;;;;;15.30;14.60;;;28.30;20.90;;;;;;2610689;54;20135;-75
2023/06/23 16:48:16;;;;;;;15.87;15.17;;;27.00;17.70;;;;;;2612711;54;20127;-75
2023/06/23 16:54:04;;;;;;;24.43;17.57;;;26.30;20.90;;;;;;2613386;39;20561;-75
2023/06/23 16:59:47;;;;;;;17.10;16.03;;;26.50;19.80;;;;;;2612680;54;20147;-74
2023/06/23 17:05:35;;;;;;;17.97;17.07;;;25.80;23.10;;;;;;2613737;39;20652;-75
2023/06/23 17:11:23;;;;;;;16.30;15.43;;;25.70;24.70;;;;;;2613967;39;20761;-75
2023/06/23 17:17:11;;;;;;;16.20;15.30;;;25.60;26.20;;;;;;2615106;54;20134;-74
2023/06/23 17:22:58;;;;;;;17.57;16.77;;;26.00;26.10;;;;;;2614658;39;20541;-74
2023/06/23 17:28:46;;;;;;;17.20;16.30;;;25.70;27.30;;;;;;2614469;39;20399;-74
2023/06/23 17:34:34;;;;;;;16.40;15.60;;;25.10;30.50;;;;;;2607835;54;20126;-75
2023/06/23 17:40:25;;;;;;;16.30;15.60;;;25.60;32.60;;;;;;2611765;54;20803;-73
2023/06/23 17:46:12;;;;;;;16.60;15.60;;;25.80;34.50;;;;;;2613107;54;20419;-74
2023/06/23 17:52:00;;;;;;;16.10;15.40;;;25.30;31.10;;;;;;2611839;54;20123;-76
2023/06/23 18:01:48;;;;;;;18.00;16.80;;;25.30;33.70;;;;;;2611108;54;20407;-74
2023/06/23 18:07:36;;;;;;;16.50;15.60;;;25.10;36.60;;;;;;2613964;54;20410;-79
2023/06/23 18:13:23;;;;;;;16.97;16.07;;;24.80;37.40;;;;;;2614306;39;20712;-78
2023/06/23 18:19:11;;;;;;;30.90;16.20;;;24.90;39.30;;;;;;2614600;39;20650;-77
2023/06/23 18:24:59;;;;;;;15.53;14.83;;;24.90;43.20;;;;;;2613135;54;20178;-77
2023/06/23 18:30:47;;;;;;;16.87;16.00;;;24.70;43.00;;;;;;2614271;54;20147;-76
2023/06/23 18:36:34;;;;;;;16.43;15.53;;;24.40;46.20;;;;;;2611950;54;20154;-77
2023/06/23 18:42:22;;;;;;;15.90;15.17;;;24.20;50.70;;;;;;2612883;54;20650;-76
2023/06/23 18:48:10;;;;;;;16.60;15.67;;;24.00;55.70;;;;;;2611009;54;20366;-77
2023/06/23 18:53:57;;;;;;;16.33;15.33;;;23.90;55.30;;;;;;2612696;54;20269;-79
2023/06/23 18:57:01;;;;;;;16.57;15.70;;;23.80;57.00;;;;;;2612141;54;20395;-78
2023/06/23 19:03:06;;;;;;;15.67;14.97;;;23.60;61.00;;;;;;2614380;54;20383;-78
2023/06/23 19:08:57;;;;;;;30.07;17.00;;;23.30;67.00;;;;;;2609681;54;20382;-78
2023/06/23 19:14:45;;;;;;;16.30;15.50;;;23.00;73.80;;;;;;2613910;54;20371;-78
2023/06/23 19:20:32;;;;;;;15.53;14.80;;;22.80;78.90;;;;;;2612902;54;20130;-77
2023/06/23 19:26:20;;;;;;;15.47;14.70;;;22.70;82.30;;;;;;2610979;54;20235;-77
2023/06/23 19:32:08;;;;;;;16.90;16.00;;;22.40;89.40;;;;;;2613079;54;20137;-78
2023/06/23 19:37:55;;;;;;;16.90;15.80;;;22.20;95.90;;;;;;2612933;54;20403;-78
2023/06/23 19:43:43;;;;;;;18.23;16.83;;;22.00;99.90;;;;;;2614210;54;20130;-76
2023/06/23 19:49:31;;;;;;;16.17;15.27;;;21.70;99.90;;;;;;2612108;54;20222;-78
2023/06/23 19:55:19;;;;;;;15.60;14.47;;;21.40;99.90;;;;;;2611553;54;20519;-77
2023/06/23 20:01:19;;;;;;;15.47;14.47;;;21.10;99.90;;;;;;2612205;54;20135;-77
2023/06/23 20:07:07;;;;;;;14.63;13.83;;;20.90;99.90;;;;;;2611465;54;20150;-78
2023/06/23 20:12:54;;;;;;;14.80;14.00;;;20.70;99.90;;;;;;2609764;54;20739;-77
2023/06/23 20:18:41;;;;;;;13.80;13.00;;;20.50;99.90;;;;;;2610710;54;20391;-77
2023/06/23 20:24:28;;;;;;;14.53;13.53;;;20.20;99.90;;;;;;2610912;46;20149;-76
2023/06/23 20:30:15;;;;;;;14.43;13.53;;;20.10;99.90;;;;;;2612398;54;20130;-75
2023/06/23 20:36:03;;;;;;;14.80;13.90;;;20.00;99.90;;;;;;2611083;39;20559;-77
2023/06/23 20:41:51;;;;;;;14.73;13.63;;;19.90;99.90;;;;;;2614095;54;20171;-77
2023/06/23 20:47:39;;;;;;;13.80;12.60;;;19.80;99.90;;;;;;2615542;31;20599;-76
2023/06/23 20:53:26;;;;;;;13.60;12.77;;;19.50;99.90;;;;;;2614713;54;20134;-76
2023/06/23 21:03:07;;;;;;;13.73;12.63;;;19.30;99.90;;;;;;2614063;54;20446;-77
2023/06/23 21:08:55;;;;;;;14.20;13.30;;;19.20;99.90;;;;;;2614644;54;21336;-76
2023/06/23 21:14:43;;;;;;;13.80;12.80;;;19.00;99.90;;;;;;2614443;54;20514;-77
2023/06/23 21:20:30;;;;;;;13.53;12.57;;;18.90;99.90;;;;;;2614595;54;20661;-77
2023/06/23 21:26:18;;;;;;;13.97;12.83;;;18.80;99.90;;;;;;2615009;39;20596;-77
2023/06/23 21:32:06;;;;;;;12.83;11.83;;;18.80;99.90;;;;;;2614728;54;20134;-77
2023/06/23 21:37:54;;;;;;;14.77;12.63;;;18.60;99.90;;;;;;2614495;54;20383;-76
2023/06/23 21:43:42;;;;;;;13.63;12.37;;;18.50;99.90;;;;;;2611522;39;20217;-76
2023/06/23 21:49:30;;;;;;;13.27;12.37;;;18.50;99.90;;;;;;2612040;54;20135;-76
2023/06/23 21:55:18;;;;;;;13.30;12.30;;;18.40;99.90;;;;;;2614159;54;20668;-76
2023/06/23 21:58:39;;;;;;;12.00;11.00;;;18.40;99.90;;;;;;2613005;54;20400;-76
2023/06/23 22:01:05;;;;;;;13.37;12.07;;;18.20;99.90;;;;;;2612034;47;20162;-76
2023/06/23 22:06:53;;;;;;;12.77;11.57;;;18.00;99.90;;;;;;2614860;39;20533;-76
2023/06/23 22:12:40;;;;;;;14.20;12.03;;;18.20;99.90;;;;;;2614899;54;20605;-77
2023/06/23 22:18:28;;;;;;;11.87;10.67;;;18.00;99.90;;;;;;2614752;54;20159;-76
2023/06/23 22:24:16;;;;;;;12.33;11.23;;;17.70;99.90;;;;;;2614709;54;20127;-76
2023/06/23 22:30:05;;;;;;;11.97;11.00;;;17.70;99.90;;;;;;2615289;31;20882;-77
2023/06/23 22:35:52;;;;;;;13.37;10.80;;;17.50;99.90;;;;;;2612730;54;20390;-75
2023/06/23 22:41:40;;;;;;;11.60;10.57;;;17.60;99.90;;;;;;2615218;54;20163;-76
2023/06/23 22:47:32;;;;;;;12.43;11.40;;;17.40;99.90;;;;;;2613781;54;20130;-77
2023/06/23 22:53:19;;;;;;;14.47;10.67;;;17.40;99.90;;;;;;2614661;54;20384;-75
2023/06/23 23:03:09;;;;;;;13.17;11.87;;;17.20;99.90;;;;;;2614885;54;20356;-76
2023/06/23 23:08:57;;;;;;;11.73;10.63;;;17.10;99.90;;;;;;2614419;54;20368;-77
2023/06/23 23:14:45;;;;;;;13.00;11.80;;;17.00;99.90;;;;;;2614525;54;20114;-76
2023/06/23 23:20:33;;;;;;;12.27;11.17;;;17.10;99.90;;;;;;2614599;54;20146;-77
2023/06/23 23:26:29;;;;;;;11.10;10.20;;;17.00;99.90;;;;;;2614496;54;20407;-76
2023/06/23 23:32:21;;;;;;;12.27;11.27;;;16.80;99.90;;;;;;2614829;54;20395;-76
2023/06/23 23:38:08;;;;;;;16.50;12.27;;;16.70;99.90;;;;;;2614246;54;20387;-76
2023/06/23 23:43:56;;;;;;;13.43;12.33;;;16.70;99.90;;;;;;2615033;54;20146;-77
2023/06/23 23:49:44;;;;;;;13.50;12.30;;;16.80;99.90;;;;;;2613319;54;20127;-77
2023/06/23 23:55:32;;;;;;;15.17;12.93;;;16.60;99.90;;;;;;2614728;54;20134;-76
2023/06/23 23:58:36;;;;;;;12.47;11.20;;;16.70;99.90;;;;;;2614261;54;20424;-76
